Lansing, Michigan
Current Conditions -  °F | °C
As of 3:41 PM on Friday 28 Nov 2014 (Local Time) from KLAN Reporting Station
Light Snow Light Snow  
Wind Chill: 15°   Ceiling: 7500
Heat Index: 24°   Visibility: 3mi
Dew Point: 17°   Wind: 8mph
Humidity: 75%   Direction: 180°S
Pressure: 30.14"   Gusts: NA
Location:  42.73°N, 84.55°W
Report Text: KLAN 282041Z 18007KT 3SM -SN FEW030 SCT040 OVC075 M04/M08 A3014 RMK AO2 P0000 T10441083
Loading
Personal Weather Stations






























Interactive Weather Map New forecast layout! Learn more

10-Day Weather Forecast

Advertisements
Track Severe Weather on mobile